sensor_id;sensor_type;location;lat;lon;timestamp;pressure;altitude;pressure_sealevel;temperature;humidity
54592;BME280;40488;48.558;18.150;2022-10-26T00:01:27;100056.91;;;9.74;84.27
54592;BME280;40488;48.558;18.150;2022-10-26T00:03:56;100055.13;;;9.64;84.23
54592;BME280;40488;48.558;18.150;2022-10-26T00:06:25;100055.88;;;9.56;83.78
54592;BME280;40488;48.558;18.150;2022-10-26T00:08:56;100064.31;;;9.49;84.32
54592;BME280;40488;48.558;18.150;2022-10-26T00:11:25;100064.22;;;9.39;83.60
54592;BME280;40488;48.558;18.150;2022-10-26T00:13:54;100060.00;;;9.40;84.24
54592;BME280;40488;48.558;18.150;2022-10-26T00:16:24;100055.81;;;9.47;84.08
54592;BME280;40488;48.558;18.150;2022-10-26T00:18:53;100065.97;;;9.43;83.80
54592;BME280;40488;48.558;18.150;2022-10-26T00:21:22;100059.16;;;9.42;84.77
54592;BME280;40488;48.558;18.150;2022-10-26T00:23:50;100057.50;;;9.46;84.56
54592;BME280;40488;48.558;18.150;2022-10-26T00:26:20;100054.16;;;9.52;84.52
54592;BME280;40488;48.558;18.150;2022-10-26T00:28:52;100050.66;;;9.40;84.70
54592;BME280;40488;48.558;18.150;2022-10-26T00:31:20;100050.66;;;9.40;84.15
54592;BME280;40488;48.558;18.150;2022-10-26T00:33:51;100055.75;;;9.43;84.36
54592;BME280;40488;48.558;18.150;2022-10-26T00:36:20;100059.19;;;9.45;84.83
54592;BME280;40488;48.558;18.150;2022-10-26T00:38:50;100062.63;;;9.51;84.68
54592;BME280;40488;48.558;18.150;2022-10-26T00:41:23;100060.06;;;9.48;84.51
54592;BME280;40488;48.558;18.150;2022-10-26T00:43:52;100033.53;;;9.27;83.86
54592;BME280;40488;48.558;18.150;2022-10-26T00:46:22;100060.81;;;9.37;84.83
54592;BME280;40488;48.558;18.150;2022-10-26T00:48:55;100059.09;;;9.36;84.71
54592;BME280;40488;48.558;18.150;2022-10-26T00:51:28;100063.41;;;9.40;84.83
54592;BME280;40488;48.558;18.150;2022-10-26T00:54:00;100066.84;;;9.49;85.02
54592;BME280;40488;48.558;18.150;2022-10-26T00:56:33;100064.34;;;9.53;84.40
54592;BME280;40488;48.558;18.150;2022-10-26T00:59:05;100059.22;;;9.49;84.18
54592;BME280;40488;48.558;18.150;2022-10-26T01:01:36;100064.25;;;9.42;84.92
54592;BME280;40488;48.558;18.150;2022-10-26T01:04:07;100055.75;;;9.40;84.49
54592;BME280;40488;48.558;18.150;2022-10-26T01:06:36;100054.03;;;9.39;84.57
54592;BME280;40488;48.558;18.150;2022-10-26T01:09:05;100055.75;;;9.40;84.79
54592;BME280;40488;48.558;18.150;2022-10-26T01:11:35;100059.16;;;9.42;84.31
54592;BME280;40488;48.558;18.150;2022-10-26T01:14:07;100054.91;;;9.43;84.22
54592;BME280;40488;48.558;18.150;2022-10-26T01:16:47;100053.25;;;9.45;84.12
54592;BME280;40488;48.558;18.150;2022-10-26T01:22:20;100065.13;;;9.46;84.71
54592;BME280;40488;48.558;18.150;2022-10-26T01:25:08;100065.06;;;9.37;84.26
54592;BME280;40488;48.558;18.150;2022-10-26T01:27:42;100064.94;;;9.26;83.82
54592;BME280;40488;48.558;18.150;2022-10-26T01:30:22;100064.78;;;9.14;83.67
54592;BME280;40488;48.558;18.150;2022-10-26T01:33:05;100057.00;;;9.02;83.79
54592;BME280;40488;48.558;18.150;2022-10-26T01:35:40;100055.28;;;8.98;83.81
54592;BME280;40488;48.558;18.150;2022-10-26T01:38:18;100049.31;;;8.95;83.89
54592;BME280;40488;48.558;18.150;2022-10-26T01:40:54;100043.41;;;9.00;83.82
54592;BME280;40488;48.558;18.150;2022-10-26T01:43:30;100058.81;;;9.09;84.10
54592;BME280;40488;48.558;18.150;2022-10-26T01:46:02;100055.50;;;9.16;84.52
54592;BME280;40488;48.558;18.150;2022-10-26T01:48:33;100052.97;;;9.19;83.99
54592;BME280;40488;48.558;18.150;2022-10-26T01:51:05;100052.09;;;9.17;83.50
54592;BME280;40488;48.558;18.150;2022-10-26T01:53:42;100055.50;;;9.19;83.91
54592;BME280;40488;48.558;18.150;2022-10-26T01:56:15;100038.56;;;9.21;84.02
54592;BME280;40488;48.558;18.150;2022-10-26T02:05:03;100041.91;;;9.17;83.82
54592;BME280;40488;48.558;18.150;2022-10-26T02:07:43;100047.88;;;9.18;84.35
54592;BME280;40488;48.558;18.150;2022-10-26T02:10:23;100039.31;;;9.11;83.64
54592;BME280;40488;48.558;18.150;2022-10-26T02:13:01;100040.78;;;8.90;82.80
54592;BME280;40488;48.558;18.150;2022-10-26T02:15:42;100048.25;;;8.79;83.41
54592;BME280;40488;48.558;18.150;2022-10-26T02:18:23;100044.13;;;8.87;83.56
54592;BME280;40488;48.558;18.150;2022-10-26T02:21:01;100046.72;;;8.93;82.99
54592;BME280;40488;48.558;18.150;2022-10-26T02:23:34;100045.06;;;8.94;83.37
54592;BME280;40488;48.558;18.150;2022-10-26T02:26:05;100038.22;;;8.91;83.46
54592;BME280;40488;48.558;18.150;2022-10-26T02:28:42;100038.19;;;8.88;83.56
54592;BME280;40488;48.558;18.150;2022-10-26T02:31:14;100017.72;;;8.79;83.46
54592;BME280;40488;48.558;18.150;2022-10-26T02:33:47;100039.03;;;8.87;83.59
54592;BME280;40488;48.558;18.150;2022-10-26T02:36:22;100034.72;;;8.83;83.91
54592;BME280;40488;48.558;18.150;2022-10-26T02:38:53;100046.59;;;8.81;84.11
54592;BME280;40488;48.558;18.150;2022-10-26T02:41:25;100049.13;;;8.80;83.72
54592;BME280;40488;48.558;18.150;2022-10-26T02:43:59;100049.91;;;8.74;83.33
54592;BME280;40488;48.558;18.150;2022-10-26T02:46:31;100051.50;;;8.66;83.25
54592;BME280;40488;48.558;18.150;2022-10-26T02:49:00;100059.91;;;8.62;83.41
54592;BME280;40488;48.558;18.150;2022-10-26T02:51:34;100058.22;;;8.61;83.57
54592;BME280;40488;48.558;18.150;2022-10-26T02:54:13;100051.41;;;8.61;83.23
54592;BME280;40488;48.558;18.150;2022-10-26T02:56:47;100047.25;;;8.65;83.42
54592;BME280;40488;48.558;18.150;2022-10-26T02:59:21;100046.44;;;8.69;83.51
54592;BME280;40488;48.558;18.150;2022-10-26T03:01:52;100045.66;;;8.73;83.48
54592;BME280;40488;48.558;18.150;2022-10-26T03:04:28;100044.75;;;8.71;84.02
54592;BME280;40488;48.558;18.150;2022-10-26T03:06:58;100049.03;;;8.72;83.77
54592;BME280;40488;48.558;18.150;2022-10-26T03:09:28;100049.03;;;8.72;84.13
54592;BME280;40488;48.558;18.150;2022-10-26T03:11:56;100048.22;;;8.73;83.51
54592;BME280;40488;48.558;18.150;2022-10-26T03:14:25;100046.44;;;8.69;83.98
54592;BME280;40488;48.558;18.150;2022-10-26T03:16:53;100048.16;;;8.68;84.22
54592;BME280;40488;48.558;18.150;2022-10-26T03:19:22;100049.84;;;8.71;83.64
54592;BME280;40488;48.558;18.150;2022-10-26T03:21:52;100051.56;;;8.72;83.80
54592;BME280;40488;48.558;18.150;2022-10-26T03:24:22;100050.72;;;8.71;84.34
54592;BME280;40488;48.558;18.150;2022-10-26T03:26:50;100049.84;;;8.71;84.48
54592;BME280;40488;48.558;18.150;2022-10-26T03:29:21;100056.56;;;8.63;83.82
54592;BME280;40488;48.558;18.150;2022-10-26T03:31:50;100046.25;;;8.54;83.79
54592;BME280;40488;48.558;18.150;2022-10-26T03:34:21;100050.44;;;8.50;83.52
54592;BME280;40488;48.558;18.150;2022-10-26T03:36:49;100049.50;;;8.44;83.82
54592;BME280;40488;48.558;18.150;2022-10-26T03:39:18;100057.03;;;8.36;83.95
54592;BME280;40488;48.558;18.150;2022-10-26T03:41:48;100054.28;;;8.26;83.67
54592;BME280;40488;48.558;18.150;2022-10-26T03:44:17;100056.81;;;8.26;84.47
54592;BME280;40488;48.558;18.150;2022-10-26T03:46:45;100060.16;;;8.22;84.28
54592;BME280;40488;48.558;18.150;2022-10-26T03:49:14;100060.97;;;8.18;84.80
54592;BME280;40488;48.558;18.150;2022-10-26T03:51:43;100064.47;;;8.26;84.83
54592;BME280;40488;48.558;18.150;2022-10-26T03:54:11;100067.78;;;8.22;84.59
54592;BME280;40488;48.558;18.150;2022-10-26T03:56:40;100073.69;;;8.21;85.08
54592;BME280;40488;48.558;18.150;2022-10-26T03:59:10;100073.03;;;8.28;84.33
54592;BME280;40488;48.558;18.150;2022-10-26T04:01:38;100078.19;;;8.34;85.29
54592;BME280;40488;48.558;18.150;2022-10-26T04:04:07;100075.63;;;8.32;84.73
54592;BME280;40488;48.558;18.150;2022-10-26T04:06:36;100072.88;;;8.22;85.34
54592;BME280;40488;48.558;18.150;2022-10-26T04:09:04;100077.88;;;8.16;85.22
54592;BME280;40488;48.558;18.150;2022-10-26T04:11:34;100071.16;;;8.21;84.99
54592;BME280;40488;48.558;18.150;2022-10-26T04:14:02;100069.69;;;8.32;86.35
54592;BME280;40488;48.558;18.150;2022-10-26T04:16:32;100070.41;;;8.25;85.50
54592;BME280;40488;48.558;18.150;2022-10-26T04:19:01;100059.38;;;8.26;85.98
54592;BME280;40488;48.558;18.150;2022-10-26T04:21:30;100062.94;;;8.34;86.55
54592;BME280;40488;48.558;18.150;2022-10-26T04:23:59;100057.84;;;8.34;85.94
54592;BME280;40488;48.558;18.150;2022-10-26T04:26:28;100057.03;;;8.35;85.88
54592;BME280;40488;48.558;18.150;2022-10-26T04:28:56;100064.66;;;8.38;86.08
54592;BME280;40488;48.558;18.150;2022-10-26T04:31:25;100065.47;;;8.35;85.46
54592;BME280;40488;48.558;18.150;2022-10-26T04:33:55;100067.94;;;8.28;86.07
54592;BME280;40488;48.558;18.150;2022-10-26T04:36:24;100056.13;;;8.33;86.16
54592;BME280;40488;48.558;18.150;2022-10-26T04:38:53;100056.28;;;8.43;86.31
54592;BME280;40488;48.558;18.150;2022-10-26T04:41:21;100056.28;;;8.42;85.77
54592;BME280;40488;48.558;18.150;2022-10-26T04:43:50;100057.91;;;8.38;85.18
54592;BME280;40488;48.558;18.150;2022-10-26T04:46:18;100054.38;;;8.29;85.54
54592;BME280;40488;48.558;18.150;2022-10-26T04:48:47;100051.03;;;8.33;85.16
54592;BME280;40488;48.558;18.150;2022-10-26T04:51:17;100044.31;;;8.36;85.41
54592;BME280;40488;48.558;18.150;2022-10-26T04:53:46;100056.22;;;8.37;85.65
54592;BME280;40488;48.558;18.150;2022-10-26T04:56:14;100047.72;;;8.40;84.84
54592;BME280;40488;48.558;18.150;2022-10-26T04:58:43;100057.81;;;8.32;84.96
54592;BME280;40488;48.558;18.150;2022-10-26T05:01:12;100059.47;;;8.29;85.33
54592;BME280;40488;48.558;18.150;2022-10-26T05:03:40;100054.25;;;8.23;84.65
54592;BME280;40488;48.558;18.150;2022-10-26T05:06:09;100056.75;;;8.18;85.42
54592;BME280;40488;48.558;18.150;2022-10-26T05:08:39;100060.09;;;8.16;85.51
54592;BME280;40488;48.558;18.150;2022-10-26T05:11:07;100059.97;;;8.09;84.63
54592;BME280;40488;48.558;18.150;2022-10-26T05:13:36;100057.31;;;8.00;85.34
54592;BME280;40488;48.558;18.150;2022-10-26T05:16:05;100052.13;;;7.94;85.23
54592;BME280;40488;48.558;18.150;2022-10-26T05:18:34;100059.72;;;7.91;84.87
54592;BME280;40488;48.558;18.150;2022-10-26T05:21:03;100057.19;;;7.94;85.82
54592;BME280;40488;48.558;18.150;2022-10-26T05:23:31;100061.53;;;8.00;85.47
54592;BME280;40488;48.558;18.150;2022-10-26T05:26:02;100060.78;;;8.05;85.68
54592;BME280;40488;48.558;18.150;2022-10-26T05:28:30;100065.06;;;8.08;85.62
54592;BME280;40488;48.558;18.150;2022-10-26T05:30:59;100065.91;;;8.08;85.63
54592;BME280;40488;48.558;18.150;2022-10-26T05:33:28;100072.63;;;8.06;85.37
54592;BME280;40488;48.558;18.150;2022-10-26T05:35:56;100074.22;;;7.98;85.16
54592;BME280;40488;48.558;18.150;2022-10-26T05:38:25;100074.16;;;7.95;85.46
54592;BME280;40488;48.558;18.150;2022-10-26T05:40:53;100080.13;;;7.96;85.63
54592;BME280;40488;48.558;18.150;2022-10-26T05:43:24;100069.16;;;8.01;86.43
54592;BME280;40488;48.558;18.150;2022-10-26T05:45:53;100066.63;;;8.00;85.54
54592;BME280;40488;48.558;18.150;2022-10-26T05:48:22;100080.13;;;7.97;85.51
54592;BME280;40488;48.558;18.150;2022-10-26T05:50:50;100065.75;;;7.99;85.20
54592;BME280;40488;48.558;18.150;2022-10-26T05:53:19;100076.03;;;8.07;85.23
54592;BME280;40488;48.558;18.150;2022-10-26T05:55:48;100073.91;;;8.31;85.85
54592;BME280;40488;48.558;18.150;2022-10-26T05:58:17;100071.53;;;8.45;84.91
54592;BME280;40488;48.558;18.150;2022-10-26T06:00:58;100069.91;;;8.50;85.70
54592;BME280;40488;48.558;18.150;2022-10-26T06:03:36;100074.41;;;8.66;85.39
54592;BME280;40488;48.558;18.150;2022-10-26T06:06:10;100077.09;;;8.78;85.70
54592;BME280;40488;48.558;18.150;2022-10-26T06:08:41;100077.22;;;8.90;85.21
54592;BME280;40488;48.558;18.150;2022-10-26T06:11:10;100080.78;;;9.01;84.72
54592;BME280;40488;48.558;18.150;2022-10-26T06:13:40;100081.69;;;9.06;85.52
54592;BME280;40488;48.558;18.150;2022-10-26T06:16:22;100082.59;;;9.11;85.08
54592;BME280;40488;48.558;18.150;2022-10-26T06:19:05;100087.72;;;9.14;85.78
54592;BME280;40488;48.558;18.150;2022-10-26T06:21:46;100089.56;;;9.27;85.56
54592;BME280;40488;48.558;18.150;2022-10-26T06:24:22;100099.91;;;9.39;85.56
54592;BME280;40488;48.558;18.150;2022-10-26T06:26:56;100101.69;;;9.50;85.13
54592;BME280;40488;48.558;18.150;2022-10-26T06:29:38;100101.81;;;9.62;85.62
54592;BME280;40488;48.558;18.150;2022-10-26T06:32:11;100099.41;;;9.77;85.99
54592;BME280;40488;48.558;18.150;2022-10-26T06:34:44;100100.41;;;9.91;85.10
54592;BME280;40488;48.558;18.150;2022-10-26T06:37:15;100102.16;;;9.98;84.81
54592;BME280;40488;48.558;18.150;2022-10-26T06:39:45;100106.47;;;10.06;85.38
54592;BME280;40488;48.558;18.150;2022-10-26T06:42:21;100102.34;;;10.19;85.14
54592;BME280;40488;48.558;18.150;2022-10-26T06:44:50;100112.69;;;10.37;85.27
54592;BME280;40488;48.558;18.150;2022-10-26T06:47:25;100105.94;;;10.45;85.23
54592;BME280;40488;48.558;18.150;2022-10-26T06:50:08;100113.66;;;10.53;84.85
54592;BME280;40488;48.558;18.150;2022-10-26T06:52:43;100112.03;;;10.68;85.13
54592;BME280;40488;48.558;18.150;2022-10-26T06:55:14;100107.78;;;10.70;84.77
54592;BME280;40488;48.558;18.150;2022-10-26T06:57:44;100072.00;;;10.61;84.84
54592;BME280;40488;48.558;18.150;2022-10-26T07:00:14;100113.00;;;10.95;84.38
54592;BME280;40488;48.558;18.150;2022-10-26T07:02:47;100118.19;;;11.07;84.39
54592;BME280;40488;48.558;18.150;2022-10-26T07:05:16;100119.03;;;11.07;84.08
54592;BME280;40488;48.558;18.150;2022-10-26T07:07:46;100119.91;;;11.14;83.99
54592;BME280;40488;48.558;18.150;2022-10-26T07:10:15;100120.81;;;11.23;83.76
54592;BME280;40488;48.558;18.150;2022-10-26T07:12:44;100125.94;;;11.29;83.63
54592;BME280;40488;48.558;18.150;2022-10-26T07:15:12;100125.09;;;11.35;83.66
54592;BME280;40488;48.558;18.150;2022-10-26T07:17:41;100124.31;;;11.47;83.56
54592;BME280;40488;48.558;18.150;2022-10-26T07:20:13;100117.50;;;11.64;83.67
54592;BME280;40488;48.558;18.150;2022-10-26T07:22:42;100128.63;;;11.76;83.56
54592;BME280;40488;48.558;18.150;2022-10-26T07:25:11;100118.44;;;11.82;83.64
54592;BME280;40488;48.558;18.150;2022-10-26T07:27:39;100125.25;;;11.83;83.27
54592;BME280;40488;48.558;18.150;2022-10-26T07:30:09;100125.28;;;12.01;83.42
54592;BME280;40488;48.558;18.150;2022-10-26T07:32:38;100130.41;;;12.01;83.15
54592;BME280;40488;48.558;18.150;2022-10-26T07:35:07;100130.38;;;12.07;83.05
54592;BME280;40488;48.558;18.150;2022-10-26T07:37:37;100135.50;;;12.27;83.01
54592;BME280;40488;48.558;18.150;2022-10-26T07:40:06;100122.72;;;12.30;83.20
54592;BME280;40488;48.558;18.150;2022-10-26T07:42:35;100136.34;;;12.40;82.64
54592;BME280;40488;48.558;18.150;2022-10-26T07:45:04;100137.22;;;12.45;82.79
54592;BME280;40488;48.558;18.150;2022-10-26T07:47:33;100130.38;;;12.62;82.72
54592;BME280;40488;48.558;18.150;2022-10-26T07:50:02;100138.88;;;12.73;82.35
54592;BME280;40488;48.558;18.150;2022-10-26T07:52:32;100134.56;;;12.86;82.41
54592;BME280;40488;48.558;18.150;2022-10-26T07:55:04;100139.66;;;12.95;82.05
54592;BME280;40488;48.558;18.150;2022-10-26T07:57:33;100126.88;;;12.93;81.93
54592;BME280;40488;48.558;18.150;2022-10-26T08:00:02;100128.56;;;12.97;81.58
54592;BME280;40488;48.558;18.150;2022-10-26T08:02:32;100128.53;;;13.06;81.21
54592;BME280;40488;48.558;18.150;2022-10-26T08:05:01;100133.66;;;13.08;81.15
54592;BME280;40488;48.558;18.150;2022-10-26T08:07:29;100130.22;;;13.13;80.61
54592;BME280;40488;48.558;18.150;2022-10-26T08:09:58;100131.06;;;13.24;80.93
54592;BME280;40488;48.558;18.150;2022-10-26T08:12:28;100135.25;;;13.37;80.46
54592;BME280;40488;48.558;18.150;2022-10-26T08:14:58;100125.84;;;13.41;80.62
54592;BME280;40488;48.558;18.150;2022-10-26T08:17:27;100136.91;;;13.48;80.37
54592;BME280;40488;48.558;18.150;2022-10-26T08:19:56;100130.00;;;13.56;80.32
54592;BME280;40488;48.558;18.150;2022-10-26T08:22:24;100138.53;;;13.61;80.25
54592;BME280;40488;48.558;18.150;2022-10-26T08:24:53;100128.28;;;13.61;79.54
54592;BME280;40488;48.558;18.150;2022-10-26T08:27:22;100136.00;;;13.62;79.71
54592;BME280;40488;48.558;18.150;2022-10-26T08:29:52;100135.94;;;13.68;79.72
54592;BME280;40488;48.558;18.150;2022-10-26T08:32:21;100129.06;;;13.73;79.87
54592;BME280;40488;48.558;18.150;2022-10-26T08:34:49;100129.84;;;13.86;79.51
54592;BME280;40488;48.558;18.150;2022-10-26T08:37:18;100138.28;;;14.00;79.34
54592;BME280;40488;48.558;18.150;2022-10-26T08:39:50;100145.94;;;14.10;78.98
54592;BME280;40488;48.558;18.150;2022-10-26T08:42:27;100136.38;;;14.23;79.07
54592;BME280;40488;48.558;18.150;2022-10-26T08:45:02;100141.44;;;14.38;78.43
54592;BME280;40488;48.558;18.150;2022-10-26T08:47:36;100138.03;;;14.39;78.24
54592;BME280;40488;48.558;18.150;2022-10-26T08:50:12;100139.69;;;14.43;77.92
54592;BME280;40488;48.558;18.150;2022-10-26T08:52:48;100129.41;;;14.46;78.39
54592;BME280;40488;48.558;18.150;2022-10-26T08:55:24;100135.25;;;14.59;78.55
54592;BME280;40488;48.558;18.150;2022-10-26T08:57:54;100141.25;;;14.61;77.99
54592;BME280;40488;48.558;18.150;2022-10-26T09:00:25;100136.97;;;14.57;77.31
54592;BME280;40488;48.558;18.150;2022-10-26T09:02:57;100141.31;;;14.53;77.73
54592;BME280;40488;48.558;18.150;2022-10-26T09:05:29;100143.84;;;14.55;77.44
54592;BME280;40488;48.558;18.150;2022-10-26T09:08:07;100136.97;;;14.60;77.27
54592;BME280;40488;48.558;18.150;2022-10-26T09:10:43;100130.09;;;14.62;77.08
54592;BME280;40488;48.558;18.150;2022-10-26T09:13:25;100129.19;;;14.64;76.97
54592;BME280;40488;48.558;18.150;2022-10-26T09:16:02;100130.03;;;14.68;77.36
54592;BME280;40488;48.558;18.150;2022-10-26T09:18:42;100134.28;;;14.70;77.23
54592;BME280;40488;48.558;18.150;2022-10-26T09:21:25;100134.25;;;14.73;77.22
54592;BME280;40488;48.558;18.150;2022-10-26T09:24:02;100134.22;;;14.76;77.00
54592;BME280;40488;48.558;18.150;2022-10-26T09:26:36;100135.94;;;14.77;77.46
54592;BME280;40488;48.558;18.150;2022-10-26T09:29:11;100135.84;;;14.84;76.97
54592;BME280;40488;48.558;18.150;2022-10-26T09:31:46;100132.38;;;14.88;77.14
54592;BME280;40488;48.558;18.150;2022-10-26T09:34:21;100134.09;;;14.89;76.80
54592;BME280;40488;48.558;18.150;2022-10-26T09:36:53;100135.00;;;14.85;76.76
54592;BME280;40488;48.558;18.150;2022-10-26T09:39:29;100138.44;;;14.85;76.66
54592;BME280;40488;48.558;18.150;2022-10-26T09:42:06;100142.59;;;14.94;76.97
54592;BME280;40488;48.558;18.150;2022-10-26T09:44:43;100149.38;;;15.01;76.95
54592;BME280;40488;48.558;18.150;2022-10-26T09:47:25;100143.38;;;15.02;77.13
54592;BME280;40488;48.558;18.150;2022-10-26T09:49:59;100140.81;;;15.02;77.52
54592;BME280;40488;48.558;18.150;2022-10-26T09:52:29;100145.06;;;15.03;76.83
54592;BME280;40488;48.558;18.150;2022-10-26T09:54:58;100142.47;;;15.06;76.73
54592;BME280;40488;48.558;18.150;2022-10-26T09:57:26;100144.09;;;15.13;76.47
54592;BME280;40488;48.558;18.150;2022-10-26T09:59:55;100135.38;;;15.26;76.47
54592;BME280;40488;48.558;18.150;2022-10-26T10:02:37;100140.34;;;15.38;76.04
54592;BME280;40488;48.558;18.150;2022-10-26T10:05:26;100147.94;;;15.50;76.08
54592;BME280;40488;48.558;18.150;2022-10-26T10:08:18;100154.69;;;15.59;75.51
54592;BME280;40488;48.558;18.150;2022-10-26T10:10:59;100151.19;;;15.64;75.03
54592;BME280;40488;48.558;18.150;2022-10-26T10:13:31;100145.81;;;15.79;75.26
54592;BME280;40488;48.558;18.150;2022-10-26T10:16:09;100142.13;;;15.97;75.03
54592;BME280;40488;48.558;18.150;2022-10-26T10:18:40;100144.56;;;16.07;74.55
54592;BME280;40488;48.558;18.150;2022-10-26T10:21:09;100141.00;;;16.15;73.85
54592;BME280;40488;48.558;18.150;2022-10-26T10:23:48;100143.38;;;16.27;73.61
54592;BME280;40488;48.558;18.150;2022-10-26T10:26:18;100132.03;;;16.37;73.19
54592;BME280;40488;48.558;18.150;2022-10-26T10:28:56;100136.88;;;16.58;73.31
54592;BME280;40488;48.558;18.150;2022-10-26T10:31:30;100131.31;;;16.79;73.01
54592;BME280;40488;48.558;18.150;2022-10-26T10:34:15;100132.72;;;16.95;72.50
54592;BME280;40488;48.558;18.150;2022-10-26T10:36:44;100127.38;;;17.04;71.99
54592;BME280;40488;48.558;18.150;2022-10-26T10:39:29;100123.53;;;17.23;71.58
54592;BME280;40488;48.558;18.150;2022-10-26T10:42:00;100116.50;;;17.30;70.80
54592;BME280;40488;48.558;18.150;2022-10-26T10:44:30;100121.50;;;17.37;70.45
54592;BME280;40488;48.558;18.150;2022-10-26T10:47:01;100123.03;;;17.48;70.45
54592;BME280;40488;48.558;18.150;2022-10-26T10:49:32;100121.03;;;17.62;70.19
54592;BME280;40488;48.558;18.150;2022-10-26T10:52:01;100115.16;;;17.92;70.11
54592;BME280;40488;48.558;18.150;2022-10-26T10:54:31;100116.72;;;17.99;69.49
54592;BME280;40488;48.558;18.150;2022-10-26T10:57:12;100118.78;;;17.85;69.48
54592;BME280;40488;48.558;18.150;2022-10-26T10:59:53;100119.13;;;17.70;69.36
54592;BME280;40488;48.558;18.150;2022-10-26T11:05:37;100116.75;;;17.61;68.94
54592;BME280;40488;48.558;18.150;2022-10-26T11:08:11;100119.34;;;17.61;69.17
54592;BME280;40488;48.558;18.150;2022-10-26T11:10:47;100113.25;;;17.63;69.57
54592;BME280;40488;48.558;18.150;2022-10-26T11:13:21;100107.19;;;17.66;69.78
54592;BME280;40488;48.558;18.150;2022-10-26T11:16:00;100116.22;;;17.83;69.57
54592;BME280;40488;48.558;18.150;2022-10-26T11:18:33;100114.25;;;17.93;69.91
54592;BME280;40488;48.558;18.150;2022-10-26T11:21:14;100111.78;;;17.90;69.52
54592;BME280;40488;48.558;18.150;2022-10-26T11:23:47;100113.63;;;17.85;69.40
54592;BME280;40488;48.558;18.150;2022-10-26T11:26:22;100108.34;;;17.88;69.69
54592;BME280;40488;48.558;18.150;2022-10-26T11:28:54;100105.25;;;18.11;69.73
54592;BME280;40488;48.558;18.150;2022-10-26T11:31:30;100113.97;;;18.05;69.46
54592;BME280;40488;48.558;18.150;2022-10-26T11:34:12;100112.28;;;18.04;69.83
54592;BME280;40488;48.558;18.150;2022-10-26T11:36:52;100107.94;;;18.04;70.19
54592;BME280;40488;48.558;18.150;2022-10-26T11:39:32;100105.66;;;17.94;70.49
54592;BME280;40488;48.558;18.150;2022-10-26T11:42:08;100120.41;;;17.89;70.73
54592;BME280;40488;48.558;18.150;2022-10-26T11:44:42;100116.25;;;17.82;70.97
54592;BME280;40488;48.558;18.150;2022-10-26T11:47:18;100118.16;;;17.74;71.30
54592;BME280;40488;48.558;18.150;2022-10-26T11:49:53;100119.13;;;17.70;71.81
54592;BME280;40488;48.558;18.150;2022-10-26T11:52:33;100115.72;;;17.68;72.36
54592;BME280;40488;48.558;18.150;2022-10-26T11:55:09;100121.94;;;17.59;72.57
54592;BME280;40488;48.558;18.150;2022-10-26T11:57:39;100121.22;;;17.53;73.25
54592;BME280;40488;48.558;18.150;2022-10-26T12:00:14;100125.53;;;17.52;73.80
54592;BME280;40488;48.558;18.150;2022-10-26T12:02:48;100081.34;;;17.27;73.98
54592;BME280;40488;48.558;18.150;2022-10-26T12:05:21;100128.00;;;17.57;74.26
54592;BME280;40488;48.558;18.150;2022-10-26T12:07:54;100122.75;;;17.61;74.49
54592;BME280;40488;48.558;18.150;2022-10-26T12:10:26;100121.06;;;17.60;74.46
54592;BME280;40488;48.558;18.150;2022-10-26T12:13:00;100122.78;;;17.60;74.47
54592;BME280;40488;48.558;18.150;2022-10-26T12:15:36;100122.56;;;17.69;74.52
54592;BME280;40488;48.558;18.150;2022-10-26T12:18:33;100124.88;;;17.82;74.52
54592;BME280;40488;48.558;18.150;2022-10-26T12:21:26;100116.84;;;17.93;73.96
54592;BME280;40488;48.558;18.150;2022-10-26T12:23:58;100124.47;;;17.99;74.04
54592;BME280;40488;48.558;18.150;2022-10-26T12:26:37;100116.72;;;17.99;73.91
54592;BME280;40488;48.558;18.150;2022-10-26T12:29:34;100113.22;;;18.00;73.96
54592;BME280;40488;48.558;18.150;2022-10-26T12:35:34;100122.97;;;17.89;74.19
54592;BME280;40488;48.558;18.150;2022-10-26T12:41:17;100115.28;;;17.86;74.38
54592;BME280;40488;48.558;18.150;2022-10-26T12:43:47;100117.00;;;17.87;74.40
54592;BME280;40488;48.558;18.150;2022-10-26T12:52:19;100110.06;;;17.89;74.52
54592;BME280;40488;48.558;18.150;2022-10-26T12:57:54;100109.25;;;17.87;74.98
54592;BME280;40488;48.558;18.150;2022-10-26T13:00:27;100105.03;;;17.83;75.03
54592;BME280;40488;48.558;18.150;2022-10-26T13:03:11;100107.81;;;17.75;75.25
54592;BME280;40488;48.558;18.150;2022-10-26T13:06:07;100105.19;;;17.77;75.52
54592;BME280;40488;48.558;18.150;2022-10-26T13:08:45;100095.06;;;17.68;75.86
54592;BME280;40488;48.558;18.150;2022-10-26T13:11:18;100106.03;;;17.77;75.64
54592;BME280;40488;48.558;18.150;2022-10-26T13:13:55;100105.19;;;17.77;75.87
54592;BME280;40488;48.558;18.150;2022-10-26T13:16:26;100104.22;;;17.81;75.90
54592;BME280;40488;48.558;18.150;2022-10-26T13:18:57;100099.88;;;17.83;75.79
54592;BME280;40488;48.558;18.150;2022-10-26T13:21:27;100101.56;;;17.84;75.74
54592;BME280;40488;48.558;18.150;2022-10-26T13:23:58;100099.88;;;17.83;75.70
54592;BME280;40488;48.558;18.150;2022-10-26T13:26:32;100103.34;;;17.82;75.79
54592;BME280;40488;48.558;18.150;2022-10-26T13:29:28;100112.88;;;17.80;75.87
54592;BME280;40488;48.558;18.150;2022-10-26T13:31:58;100107.72;;;17.78;75.77
54592;BME280;40488;48.558;18.150;2022-10-26T13:34:29;100117.22;;;17.78;76.12
54592;BME280;40488;48.558;18.150;2022-10-26T13:37:06;100122.38;;;17.78;76.11
54592;BME280;40488;48.558;18.150;2022-10-26T13:39:41;100124.13;;;17.76;76.20
54592;BME280;40488;48.558;18.150;2022-10-26T13:42:14;100125.91;;;17.74;76.50